Time,TemperatureF,DewpointF,PressureIn,WindDirection,WindDirectionDegrees,WindSpeedMPH,WindSpeedGustMPH,Humidity,HourlyPrecipIn,Conditions,Clouds,dailyrainin,SolarRadiationWatts/m^2,SoftwareType,DateUTC
2013-08-25 00:03:00,73.0,43.0,-100.00,South,177,4.0,9.0,34,0.00,,,0.00,0.000000,,2013-08-25 06:03:00,
2013-08-25 00:12:00,73.0,43.0,-100.00,South,177,4.0,9.0,34,0.00,,,0.00,0.000000,,2013-08-25 06:12:00,
2013-08-25 00:43:00,69.0,46.0,-100.00,SSE,163,4.0,8.0,43,0.00,,,0.00,0.000000,,2013-08-25 06:43:00,
2013-08-25 00:52:00,69.0,46.0,-100.00,SSE,163,4.0,8.0,43,0.00,,,0.00,0.000000,,2013-08-25 06:52:00,
2013-08-25 01:01:00,69.0,46.0,-100.00,SSE,163,4.0,8.0,43,0.00,,,0.00,0.000000,,2013-08-25 07:01:00,
2013-08-25 01:12:00,69.0,46.0,-100.00,SSE,163,4.0,8.0,43,0.00,,,0.00,0.000000,,2013-08-25 07:12:00,
2013-08-25 01:42:00,66.0,46.0,-100.00,South,177,4.0,9.0,48,0.00,,,0.00,0.000000,,2013-08-25 07:42:00,
2013-08-25 01:52:00,66.0,46.0,-100.00,South,177,4.0,9.0,48,0.00,,,0.00,0.000000,,2013-08-25 07:52:00,
2013-08-25 02:02:00,66.0,46.0,-100.00,South,177,4.0,9.0,48,0.00,,,0.00,0.000000,,2013-08-25 08:02:00,
2013-08-25 02:12:00,66.0,46.0,-100.00,South,177,4.0,9.0,48,0.00,,,0.00,0.000000,,2013-08-25 08:12:00,
2013-08-25 02:42:00,64.0,44.0,-100.00,ESE,109,5.0,9.0,49,0.00,,,0.00,0.000000,,2013-08-25 08:42:00,
2013-08-25 02:52:00,64.0,44.0,-100.00,ESE,109,5.0,9.0,49,0.00,,,0.00,0.000000,,2013-08-25 08:52:00,
2013-08-25 03:01:00,64.0,44.0,-100.00,ESE,109,5.0,9.0,49,0.00,,,0.00,0.000000,,2013-08-25 09:01:00,
2013-08-25 03:11:00,64.0,44.0,-100.00,ESE,109,5.0,9.0,49,0.00,,,0.00,0.000000,,2013-08-25 09:11:00,
2013-08-25 03:44:00,62.0,47.0,-100.00,SE,130,6.0,10.0,59,0.00,,,0.00,0.000000,,2013-08-25 09:44:00,
2013-08-25 03:55:00,62.0,47.0,-100.00,SE,130,6.0,10.0,59,0.00,,,0.00,0.000000,,2013-08-25 09:55:00,
2013-08-25 04:03:00,62.0,47.0,-100.00,SE,130,6.0,10.0,59,0.00,,,0.00,0.000000,,2013-08-25 10:03:00,
2013-08-25 04:12:00,62.0,47.0,-100.00,SE,130,6.0,10.0,59,0.00,,,0.00,0.000000,,2013-08-25 10:12:00,
2013-08-25 04:42:00,60.0,47.0,-100.00,SE,130,5.0,8.0,61,0.00,,,0.00,0.000000,,2013-08-25 10:42:00,
2013-08-25 04:53:00,60.0,47.0,-100.00,SE,130,5.0,8.0,61,0.00,,,0.00,0.000000,,2013-08-25 10:53:00,
2013-08-25 05:02:00,60.0,47.0,-100.00,SE,130,5.0,8.0,61,0.00,,,0.00,0.000000,,2013-08-25 11:02:00,
2013-08-25 05:11:00,60.0,47.0,-100.00,SE,130,5.0,8.0,61,0.00,,,0.00,0.000000,,2013-08-25 11:11:00,
2013-08-25 05:42:00,61.0,45.0,-100.00,SE,129,5.0,8.0,55,0.00,,,0.00,0.000000,,2013-08-25 11:42:00,
2013-08-25 05:52:00,61.0,45.0,-100.00,SE,129,5.0,8.0,55,0.00,,,0.00,0.000000,,2013-08-25 11:52:00,
2013-08-25 06:01:00,61.0,45.0,-100.00,SE,129,5.0,8.0,55,0.00,,,0.00,0.000000,,2013-08-25 12:01:00,
2013-08-25 06:12:00,61.0,45.0,-100.00,SE,129,5.0,8.0,55,0.00,,,0.00,0.000000,,2013-08-25 12:12:00,
2013-08-25 06:43:00,56.0,48.0,-100.00,East,97,3.0,6.0,74,0.00,,,0.00,0.000000,,2013-08-25 12:43:00,
2013-08-25 06:52:00,56.0,48.0,-100.00,East,97,3.0,6.0,74,0.00,,,0.00,0.000000,,2013-08-25 12:52:00,
2013-08-25 07:02:00,56.0,48.0,-100.00,East,97,3.0,6.0,74,0.00,,,0.00,0.000000,,2013-08-25 13:02:00,
2013-08-25 07:11:00,56.0,48.0,-100.00,East,97,3.0,6.0,74,0.00,,,0.00,0.000000,,2013-08-25 13:11:00,
2013-08-25 07:42:00,54.0,48.0,-100.00,WNW,300,3.0,7.0,80,0.00,,,0.00,6.000000,,2013-08-25 13:42:00,
2013-08-25 07:52:00,54.0,48.0,-100.00,WNW,300,3.0,7.0,80,0.00,,,0.00,6.000000,,2013-08-25 13:52:00,
2013-08-25 08:02:00,54.0,48.0,-100.00,WNW,300,3.0,7.0,80,0.00,,,0.00,6.000000,,2013-08-25 14:02:00,
2013-08-25 08:11:00,54.0,48.0,-100.00,WNW,300,3.0,7.0,80,0.00,,,0.00,6.000000,,2013-08-25 14:11:00,
2013-08-25 08:42:00,60.0,52.0,-100.00,East,79,2.0,7.0,76,0.00,,,0.00,54.000000,,2013-08-25 14:42:00,
2013-08-25 08:52:00,60.0,52.0,-100.00,East,79,2.0,7.0,76,0.00,,,0.00,54.000000,,2013-08-25 14:52:00,
2013-08-25 09:01:00,60.0,52.0,-100.00,East,79,2.0,7.0,76,0.00,,,0.00,54.000000,,2013-08-25 15:01:00,
2013-08-25 09:11:00,60.0,52.0,-100.00,East,79,2.0,7.0,76,0.00,,,0.00,54.000000,,2013-08-25 15:11:00,
2013-08-25 09:54:00,67.0,53.0,-100.00,NNW,348,3.0,7.0,60,0.00,,,0.00,208.000000,,2013-08-25 15:54:00,
2013-08-25 10:04:00,67.0,53.0,-100.00,NNW,348,3.0,7.0,60,0.00,,,0.00,208.000000,,2013-08-25 16:04:00,
2013-08-25 10:13:00,67.0,53.0,-100.00,NNW,348,3.0,7.0,60,0.00,,,0.00,208.000000,,2013-08-25 16:13:00,
2013-08-25 10:54:00,73.0,51.0,-100.00,NNE,16,4.0,7.0,46,0.00,,,0.00,404.000000,,2013-08-25 16:54:00,
2013-08-25 11:03:00,73.0,51.0,-100.00,NNE,16,4.0,7.0,46,0.00,,,0.00,404.000000,,2013-08-25 17:03:00,
2013-08-25 11:11:00,73.0,51.0,-100.00,NNE,16,4.0,7.0,46,0.00,,,0.00,404.000000,,2013-08-25 17:11:00,
2013-08-25 11:53:00,79.0,47.0,-100.00,NNE,29,4.0,7.0,33,0.00,,,0.00,582.000000,,2013-08-25 17:53:00,
2013-08-25 12:02:00,79.0,47.0,-100.00,NNE,29,4.0,7.0,33,0.00,,,0.00,582.000000,,2013-08-25 18:02:00,
2013-08-25 12:12:00,79.0,47.0,-100.00,NNE,29,4.0,7.0,33,0.00,,,0.00,582.000000,,2013-08-25 18:12:00,
2013-08-25 12:52:00,83.0,47.0,-100.00,East,95,4.0,8.0,29,0.00,,,0.00,723.000000,,2013-08-25 18:52:00,
2013-08-25 13:02:00,83.0,47.0,-100.00,East,95,4.0,8.0,29,0.00,,,0.00,723.000000,,2013-08-25 19:02:00,
2013-08-25 13:11:00,83.0,47.0,-100.00,East,95,4.0,8.0,29,0.00,,,0.00,723.000000,,2013-08-25 19:11:00,
2013-08-25 13:42:00,86.0,46.0,-100.00,East,84,5.0,7.0,25,0.00,,,0.00,789.000000,,2013-08-25 19:42:00,
2013-08-25 13:53:00,86.0,46.0,-100.00,East,84,5.0,7.0,25,0.00,,,0.00,789.000000,,2013-08-25 19:53:00,
2013-08-25 14:03:00,86.0,46.0,-100.00,East,84,5.0,7.0,25,0.00,,,0.00,789.000000,,2013-08-25 20:03:00,
2013-08-25 14:12:00,86.0,46.0,-100.00,East,84,5.0,7.0,25,0.00,,,0.00,789.000000,,2013-08-25 20:12:00,
2013-08-25 14:43:00,90.0,47.0,-100.00,ENE,60,4.0,7.0,23,0.00,,,0.00,862.000000,,2013-08-25 20:43:00,
2013-08-25 14:53:00,90.0,47.0,-100.00,ENE,60,4.0,7.0,23,0.00,,,0.00,862.000000,,2013-08-25 20:53:00,
2013-08-25 15:01:00,90.0,47.0,-100.00,ENE,60,4.0,7.0,23,0.00,,,0.00,862.000000,,2013-08-25 21:01:00,
2013-08-25 15:12:00,90.0,47.0,-100.00,ENE,60,4.0,7.0,23,0.00,,,0.00,862.000000,,2013-08-25 21:12:00,
2013-08-25 15:43:00,95.0,46.0,-100.00,North,353,3.0,6.0,19,0.00,,,0.00,845.000000,,2013-08-25 21:43:00,
2013-08-25 15:55:00,95.0,46.0,-100.00,North,353,3.0,6.0,19,0.00,,,0.00,845.000000,,2013-08-25 21:55:00,
2013-08-25 16:03:00,95.0,46.0,-100.00,North,353,3.0,6.0,19,0.00,,,0.00,845.000000,,2013-08-25 22:03:00,
2013-08-25 16:13:00,95.0,46.0,-100.00,North,353,3.0,6.0,19,0.00,,,0.00,845.000000,,2013-08-25 22:13:00,
2013-08-25 16:43:00,87.0,41.0,-100.00,NNE,26,5.0,7.0,20,0.00,,,0.00,613.000000,,2013-08-25 22:43:00,
2013-08-25 16:53:00,87.0,41.0,-100.00,NNE,26,5.0,7.0,20,0.00,,,0.00,613.000000,,2013-08-25 22:53:00,
2013-08-25 17:02:00,87.0,41.0,-100.00,NNE,26,5.0,7.0,20,0.00,,,0.00,613.000000,,2013-08-25 23:02:00,
2013-08-25 17:12:00,87.0,41.0,-100.00,NNE,26,5.0,7.0,20,0.00,,,0.00,613.000000,,2013-08-25 23:12:00,
2013-08-25 17:43:00,79.0,48.0,-100.00,East,100,5.0,7.0,34,0.00,,,0.00,76.000000,,2013-08-25 23:43:00,
2013-08-25 17:53:00,79.0,48.0,-100.00,East,100,5.0,7.0,34,0.00,,,0.00,76.000000,,2013-08-25 23:53:00,
2013-08-25 18:02:00,79.0,48.0,-100.00,East,100,5.0,7.0,34,0.00,,,0.00,76.000000,,2013-08-26 00:02:00,
2013-08-25 18:11:00,79.0,48.0,-100.00,East,100,5.0,7.0,34,0.00,,,0.00,76.000000,,2013-08-26 00:11:00,
2013-08-25 18:42:00,71.0,45.0,-100.00,East,96,5.0,22.0,39,0.00,,,0.00,9.000000,,2013-08-26 00:42:00,
2013-08-25 18:52:00,71.0,45.0,-100.00,East,96,5.0,22.0,39,0.00,,,0.00,9.000000,,2013-08-26 00:52:00,
2013-08-25 19:01:00,71.0,45.0,-100.00,East,96,5.0,22.0,39,0.00,,,0.00,9.000000,,2013-08-26 01:01:00,
2013-08-25 19:42:00,65.0,56.0,-100.00,NW,317,3.0,15.0,74,0.00,,,0.00,98.000000,,2013-08-26 01:42:00,
2013-08-25 19:52:00,65.0,56.0,-100.00,NW,317,3.0,15.0,74,0.00,,,0.00,98.000000,,2013-08-26 01:52:00,
2013-08-25 20:02:00,65.0,56.0,-100.00,NW,317,3.0,15.0,74,0.00,,,0.00,98.000000,,2013-08-26 02:02:00,
2013-08-25 20:11:00,65.0,56.0,-100.00,NW,317,3.0,15.0,74,0.00,,,0.00,98.000000,,2013-08-26 02:11:00,
2013-08-25 20:42:00,64.0,56.0,-100.00,North,3,2.0,8.0,76,0.00,,,0.00,81.000000,,2013-08-26 02:42:00,
2013-08-25 20:52:00,64.0,56.0,-100.00,North,3,2.0,8.0,76,0.00,,,0.00,81.000000,,2013-08-26 02:52:00,
2013-08-25 21:02:00,64.0,56.0,-100.00,North,3,2.0,8.0,76,0.00,,,0.00,81.000000,,2013-08-26 03:02:00,
2013-08-25 21:11:00,64.0,56.0,-100.00,North,3,2.0,8.0,76,0.00,,,0.00,81.000000,,2013-08-26 03:11:00,
2013-08-25 21:14:00,60.0,54.0,-100.00,NE,36,3.0,7.0,80,0.00,,,0.00,1.000000,,2013-08-26 03:14:00,
2013-08-25 21:44:00,60.0,54.0,-100.00,NE,36,3.0,7.0,80,0.00,,,0.00,1.000000,,2013-08-26 03:44:00,
2013-08-25 21:56:00,60.0,54.0,-100.00,NE,36,3.0,7.0,80,0.00,,,0.00,1.000000,,2013-08-26 03:56:00,
2013-08-25 22:05:00,60.0,54.0,-100.00,NE,36,3.0,7.0,80,0.00,,,0.00,1.000000,,2013-08-26 04:05:00,
2013-08-25 22:44:00,60.0,55.0,-100.00,SSE,149,3.0,5.0,83,0.00,,,0.00,0.000000,,2013-08-26 04:44:00,
2013-08-25 22:53:00,60.0,55.0,-100.00,SSE,149,3.0,5.0,83,0.00,,,0.00,0.000000,,2013-08-26 04:53:00,
2013-08-25 23:03:00,60.0,55.0,-100.00,SSE,149,3.0,5.0,83,0.00,,,0.00,0.000000,,2013-08-26 05:03:00,
2013-08-25 23:13:00,60.0,55.0,-100.00,SSE,149,3.0,5.0,83,0.00,,,0.00,0.000000,,2013-08-26 05:13:00,
2013-08-25 23:44:00,61.0,55.0,-100.00,SSE,154,2.0,6.0,82,0.00,,,0.00,0.000000,,2013-08-26 05:44:00,
2013-08-25 23:52:00,61.0,55.0,-100.00,SSE,154,2.0,6.0,82,0.00,,,0.00,0.000000,,2013-08-26 05:52:00,